Huvudsida
METAR-TAF:

METAR-TAF

Flygplatser :

Oljeplattform

Heimdal, Norge

latitud: 59-34-12N, longitud: 2-13-48E, höjd: 10 m

Aktuellt väderrapport

Denna rapport gjordes för 24 minuter sedan, klockan 19:50 UTC
Vind 10 kt från ost/sydost
Temperatur 9°C
Fuktighet 100%
Tryck 1030 hPa
Sikt: 0050 m
dimma

METAR: ENHM 291950Z AUTO 11010KT 0050NDV FG NCD 09/09 Q1030 W10/S3

Tid: 22:14 (20:14 UTC)

Väderprognos

Denna rapport gjordes för 9 timmar och 14 minuter sedan, klockan 11:00 UTC
Prognos gäller från 29 kl. 12 UTC till 29 kl. 17 UTC
Vind 15 kt från syd/sydost
Sikt 10 km eller mer
Brutna moln på en höjd av 3000 ft
Sannolikhet 30%
från 29 kl. 12 UTC till 29 kl. 17 UTC
Sikt: 0100 m
på en höjd av 100 ft
dimma

TAF: ENHM 291100Z 2912/2917 15015KT 9999 BKN030 PROB30 2912/2917 0100 FG VV001

Aktuella väderrapporter och prognoser från 4000 flygplatser (METAR- och TAF-rapporter).

De tillgängliga stationerna syns som gula och röda prickar på kartan.

För musen över prickarna för att se namnen på stationerna.

Klicka sedan för att få väderrapporter och prognoser.

För att ändra kartan: Klicka på de gröna knapparna med ett svart kors på för att zooma in; den gröna knappen med ett streck på för att zooma ut; eller på de gröna pilarna för angränsande kartor.


METAR-TAF: